sensor_id;sensor_type;location;lat;lon;timestamp;P1;durP1;ratioP1;P2;durP2;ratioP2
5995;SDS011;3026;53.612;7.278;2023-05-10T00:00:10;11.50;;;9.30;;
5995;SDS011;3026;53.612;7.278;2023-05-10T00:02:38;11.57;;;9.33;;
5995;SDS011;3026;53.612;7.278;2023-05-10T00:05:05;12.27;;;9.43;;
5995;SDS011;3026;53.612;7.278;2023-05-10T00:07:33;11.00;;;9.50;;
5995;SDS011;3026;53.612;7.278;2023-05-10T00:09:59;9.83;;;8.20;;
5995;SDS011;3026;53.612;7.278;2023-05-10T00:12:26;11.70;;;7.93;;
5995;SDS011;3026;53.612;7.278;2023-05-10T00:14:54;9.57;;;8.17;;
5995;SDS011;3026;53.612;7.278;2023-05-10T00:17:21;8.90;;;7.57;;
5995;SDS011;3026;53.612;7.278;2023-05-10T00:19:48;8.93;;;7.80;;
5995;SDS011;3026;53.612;7.278;2023-05-10T00:22:15;11.70;;;8.13;;
5995;SDS011;3026;53.612;7.278;2023-05-10T00:24:41;9.10;;;8.07;;
5995;SDS011;3026;53.612;7.278;2023-05-10T00:27:08;8.27;;;7.30;;
5995;SDS011;3026;53.612;7.278;2023-05-10T00:29:35;8.53;;;7.63;;
5995;SDS011;3026;53.612;7.278;2023-05-10T00:32:03;9.53;;;8.53;;
5995;SDS011;3026;53.612;7.278;2023-05-10T00:34:30;8.80;;;7.90;;
5995;SDS011;3026;53.612;7.278;2023-05-10T00:36:57;9.13;;;7.80;;
5995;SDS011;3026;53.612;7.278;2023-05-10T00:39:24;10.07;;;7.97;;
5995;SDS011;3026;53.612;7.278;2023-05-10T00:41:51;9.03;;;7.97;;
5995;SDS011;3026;53.612;7.278;2023-05-10T00:44:18;11.07;;;8.13;;
5995;SDS011;3026;53.612;7.278;2023-05-10T00:46:45;9.90;;;8.57;;
5995;SDS011;3026;53.612;7.278;2023-05-10T00:49:14;10.57;;;7.90;;
5995;SDS011;3026;53.612;7.278;2023-05-10T00:51:41;8.80;;;7.77;;
5995;SDS011;3026;53.612;7.278;2023-05-10T00:54:09;10.07;;;8.50;;
5995;SDS011;3026;53.612;7.278;2023-05-10T00:56:38;9.20;;;8.20;;
5995;SDS011;3026;53.612;7.278;2023-05-10T00:59:04;10.27;;;8.20;;
5995;SDS011;3026;53.612;7.278;2023-05-10T01:01:31;9.90;;;8.27;;
5995;SDS011;3026;53.612;7.278;2023-05-10T01:03:58;10.97;;;9.00;;
5995;SDS011;3026;53.612;7.278;2023-05-10T01:06:27;9.30;;;8.37;;
5995;SDS011;3026;53.612;7.278;2023-05-10T01:08:54;8.97;;;8.00;;
5995;SDS011;3026;53.612;7.278;2023-05-10T01:11:21;9.67;;;7.70;;
5995;SDS011;3026;53.612;7.278;2023-05-10T01:13:50;9.43;;;7.90;;
5995;SDS011;3026;53.612;7.278;2023-05-10T01:16:20;10.87;;;8.40;;
5995;SDS011;3026;53.612;7.278;2023-05-10T01:18:47;9.30;;;8.13;;
5995;SDS011;3026;53.612;7.278;2023-05-10T01:21:17;9.50;;;7.57;;
5995;SDS011;3026;53.612;7.278;2023-05-10T01:24:03;10.80;;;8.17;;
5995;SDS011;3026;53.612;7.278;2023-05-10T01:32:54;10.33;;;8.13;;
5995;SDS011;3026;53.612;7.278;2023-05-10T01:35:26;9.37;;;7.57;;
5995;SDS011;3026;53.612;7.278;2023-05-10T01:37:59;9.23;;;7.97;;
5995;SDS011;3026;53.612;7.278;2023-05-10T01:40:32;11.57;;;8.20;;
5995;SDS011;3026;53.612;7.278;2023-05-10T01:43:04;10.67;;;8.33;;
5995;SDS011;3026;53.612;7.278;2023-05-10T01:45:36;8.97;;;8.07;;
5995;SDS011;3026;53.612;7.278;2023-05-10T01:48:10;9.20;;;8.20;;
5995;SDS011;3026;53.612;7.278;2023-05-10T01:50:38;9.23;;;7.77;;
5995;SDS011;3026;53.612;7.278;2023-05-10T01:53:10;9.70;;;7.77;;
5995;SDS011;3026;53.612;7.278;2023-05-10T01:55:41;8.87;;;7.97;;
5995;SDS011;3026;53.612;7.278;2023-05-10T01:58:13;10.57;;;8.00;;
5995;SDS011;3026;53.612;7.278;2023-05-10T02:00:42;9.17;;;7.63;;
5995;SDS011;3026;53.612;7.278;2023-05-10T02:03:12;9.13;;;8.10;;
5995;SDS011;3026;53.612;7.278;2023-05-10T02:05:41;9.40;;;8.30;;
5995;SDS011;3026;53.612;7.278;2023-05-10T02:08:10;11.87;;;9.37;;
5995;SDS011;3026;53.612;7.278;2023-05-10T02:10:39;9.97;;;8.70;;
5995;SDS011;3026;53.612;7.278;2023-05-10T02:13:07;9.93;;;8.40;;
5995;SDS011;3026;53.612;7.278;2023-05-10T02:15:36;10.10;;;8.80;;
5995;SDS011;3026;53.612;7.278;2023-05-10T02:18:05;10.77;;;9.00;;
5995;SDS011;3026;53.612;7.278;2023-05-10T02:20:33;9.60;;;8.10;;
5995;SDS011;3026;53.612;7.278;2023-05-10T02:23:01;9.77;;;8.23;;
5995;SDS011;3026;53.612;7.278;2023-05-10T02:25:29;12.27;;;8.33;;
5995;SDS011;3026;53.612;7.278;2023-05-10T02:27:59;11.27;;;8.60;;
5995;SDS011;3026;53.612;7.278;2023-05-10T02:30:29;10.20;;;8.83;;
5995;SDS011;3026;53.612;7.278;2023-05-10T02:32:58;8.20;;;5.57;;
5995;SDS011;3026;53.612;7.278;2023-05-10T02:35:26;4.40;;;4.00;;
5995;SDS011;3026;53.612;7.278;2023-05-10T02:37:55;4.60;;;3.90;;
5995;SDS011;3026;53.612;7.278;2023-05-10T02:40:24;4.07;;;3.77;;
5995;SDS011;3026;53.612;7.278;2023-05-10T02:42:54;4.60;;;4.20;;
5995;SDS011;3026;53.612;7.278;2023-05-10T02:45:23;4.20;;;3.70;;
5995;SDS011;3026;53.612;7.278;2023-05-10T02:47:53;5.33;;;4.30;;
5995;SDS011;3026;53.612;7.278;2023-05-10T02:50:21;5.20;;;4.70;;
5995;SDS011;3026;53.612;7.278;2023-05-10T02:52:50;5.37;;;4.87;;
5995;SDS011;3026;53.612;7.278;2023-05-10T02:55:19;6.20;;;5.60;;
5995;SDS011;3026;53.612;7.278;2023-05-10T02:57:52;7.07;;;6.40;;
5995;SDS011;3026;53.612;7.278;2023-05-10T03:00:24;7.30;;;6.60;;
5995;SDS011;3026;53.612;7.278;2023-05-10T03:02:51;8.03;;;6.77;;
5995;SDS011;3026;53.612;7.278;2023-05-10T03:05:18;10.77;;;7.43;;
5995;SDS011;3026;53.612;7.278;2023-05-10T03:07:45;6.73;;;5.97;;
5995;SDS011;3026;53.612;7.278;2023-05-10T03:10:13;8.30;;;7.23;;
5995;SDS011;3026;53.612;7.278;2023-05-10T03:12:45;7.90;;;6.87;;
5995;SDS011;3026;53.612;7.278;2023-05-10T03:15:22;8.20;;;6.83;;
5995;SDS011;3026;53.612;7.278;2023-05-10T03:17:55;8.67;;;7.30;;
5995;SDS011;3026;53.612;7.278;2023-05-10T03:20:29;8.83;;;7.70;;
5995;SDS011;3026;53.612;7.278;2023-05-10T03:23:02;7.07;;;6.33;;
5995;SDS011;3026;53.612;7.278;2023-05-10T03:25:33;8.27;;;7.30;;
5995;SDS011;3026;53.612;7.278;2023-05-10T03:28:02;8.07;;;6.67;;
5995;SDS011;3026;53.612;7.278;2023-05-10T03:30:31;8.60;;;7.07;;
5995;SDS011;3026;53.612;7.278;2023-05-10T03:33:03;8.33;;;6.80;;
5995;SDS011;3026;53.612;7.278;2023-05-10T03:35:31;8.23;;;6.67;;
5995;SDS011;3026;53.612;7.278;2023-05-10T03:37:57;8.63;;;7.17;;
5995;SDS011;3026;53.612;7.278;2023-05-10T03:40:24;8.90;;;6.80;;
5995;SDS011;3026;53.612;7.278;2023-05-10T03:42:54;9.17;;;7.47;;
5995;SDS011;3026;53.612;7.278;2023-05-10T03:45:22;9.63;;;8.27;;
5995;SDS011;3026;53.612;7.278;2023-05-10T03:47:49;8.67;;;7.70;;
5995;SDS011;3026;53.612;7.278;2023-05-10T03:50:16;10.43;;;8.17;;
5995;SDS011;3026;53.612;7.278;2023-05-10T03:52:43;10.07;;;8.27;;
5995;SDS011;3026;53.612;7.278;2023-05-10T03:55:10;9.23;;;7.83;;
5995;SDS011;3026;53.612;7.278;2023-05-10T03:57:37;10.73;;;8.47;;
5995;SDS011;3026;53.612;7.278;2023-05-10T04:00:04;9.73;;;8.17;;
5995;SDS011;3026;53.612;7.278;2023-05-10T04:02:33;10.10;;;8.47;;
5995;SDS011;3026;53.612;7.278;2023-05-10T04:04:59;8.67;;;7.67;;
5995;SDS011;3026;53.612;7.278;2023-05-10T04:07:26;8.90;;;8.00;;
5995;SDS011;3026;53.612;7.278;2023-05-10T04:09:53;11.93;;;8.70;;
5995;SDS011;3026;53.612;7.278;2023-05-10T04:12:20;9.33;;;8.07;;
5995;SDS011;3026;53.612;7.278;2023-05-10T04:14:47;9.73;;;8.13;;
5995;SDS011;3026;53.612;7.278;2023-05-10T04:17:13;9.33;;;8.43;;
5995;SDS011;3026;53.612;7.278;2023-05-10T04:19:42;9.33;;;7.63;;
5995;SDS011;3026;53.612;7.278;2023-05-10T04:22:08;8.47;;;7.47;;
5995;SDS011;3026;53.612;7.278;2023-05-10T04:24:35;10.70;;;7.97;;
5995;SDS011;3026;53.612;7.278;2023-05-10T04:27:02;9.73;;;8.27;;
5995;SDS011;3026;53.612;7.278;2023-05-10T04:29:29;8.77;;;7.70;;
5995;SDS011;3026;53.612;7.278;2023-05-10T04:31:56;8.23;;;7.37;;
5995;SDS011;3026;53.612;7.278;2023-05-10T04:34:23;9.63;;;8.30;;
5995;SDS011;3026;53.612;7.278;2023-05-10T04:36:51;9.37;;;8.33;;
5995;SDS011;3026;53.612;7.278;2023-05-10T04:39:18;8.40;;;7.50;;
5995;SDS011;3026;53.612;7.278;2023-05-10T04:41:44;8.03;;;7.00;;
5995;SDS011;3026;53.612;7.278;2023-05-10T04:44:11;10.90;;;7.53;;
5995;SDS011;3026;53.612;7.278;2023-05-10T04:46:38;9.53;;;7.83;;
5995;SDS011;3026;53.612;7.278;2023-05-10T04:49:05;8.23;;;7.30;;
5995;SDS011;3026;53.612;7.278;2023-05-10T04:51:31;10.13;;;8.20;;
5995;SDS011;3026;53.612;7.278;2023-05-10T04:54:00;8.63;;;7.60;;
5995;SDS011;3026;53.612;7.278;2023-05-10T04:56:26;9.10;;;7.57;;
5995;SDS011;3026;53.612;7.278;2023-05-10T04:58:53;7.80;;;7.00;;
5995;SDS011;3026;53.612;7.278;2023-05-10T05:01:20;9.70;;;7.50;;
5995;SDS011;3026;53.612;7.278;2023-05-10T05:03:48;7.97;;;7.17;;
5995;SDS011;3026;53.612;7.278;2023-05-10T05:06:15;8.53;;;7.63;;
5995;SDS011;3026;53.612;7.278;2023-05-10T05:08:41;8.80;;;7.33;;
5995;SDS011;3026;53.612;7.278;2023-05-10T05:11:10;8.13;;;7.20;;
5995;SDS011;3026;53.612;7.278;2023-05-10T05:13:36;10.90;;;7.50;;
5995;SDS011;3026;53.612;7.278;2023-05-10T05:16:04;9.53;;;7.37;;
5995;SDS011;3026;53.612;7.278;2023-05-10T05:18:31;9.27;;;7.20;;
5995;SDS011;3026;53.612;7.278;2023-05-10T05:20:58;8.07;;;7.27;;
5995;SDS011;3026;53.612;7.278;2023-05-10T05:23:25;9.43;;;7.90;;
5995;SDS011;3026;53.612;7.278;2023-05-10T05:25:52;10.03;;;8.30;;
5995;SDS011;3026;53.612;7.278;2023-05-10T05:28:21;11.67;;;7.70;;
5995;SDS011;3026;53.612;7.278;2023-05-10T05:30:47;9.07;;;7.20;;
5995;SDS011;3026;53.612;7.278;2023-05-10T05:33:14;9.03;;;7.60;;
5995;SDS011;3026;53.612;7.278;2023-05-10T05:35:41;11.40;;;8.67;;
5995;SDS011;3026;53.612;7.278;2023-05-10T05:38:12;8.47;;;7.40;;
5995;SDS011;3026;53.612;7.278;2023-05-10T05:40:39;7.93;;;7.13;;
5995;SDS011;3026;53.612;7.278;2023-05-10T05:43:06;8.80;;;7.57;;
5995;SDS011;3026;53.612;7.278;2023-05-10T05:45:34;12.40;;;7.80;;
5995;SDS011;3026;53.612;7.278;2023-05-10T05:48:01;9.63;;;7.97;;
5995;SDS011;3026;53.612;7.278;2023-05-10T05:50:28;8.17;;;7.37;;
5995;SDS011;3026;53.612;7.278;2023-05-10T05:52:54;8.87;;;7.40;;
5995;SDS011;3026;53.612;7.278;2023-05-10T05:55:22;8.73;;;7.40;;
5995;SDS011;3026;53.612;7.278;2023-05-10T05:57:49;8.63;;;7.73;;
5995;SDS011;3026;53.612;7.278;2023-05-10T06:00:16;9.07;;;7.20;;
5995;SDS011;3026;53.612;7.278;2023-05-10T06:02:44;8.37;;;6.73;;
5995;SDS011;3026;53.612;7.278;2023-05-10T06:05:11;9.13;;;8.20;;
5995;SDS011;3026;53.612;7.278;2023-05-10T06:07:39;8.20;;;7.37;;
5995;SDS011;3026;53.612;7.278;2023-05-10T06:10:07;8.13;;;7.30;;
5995;SDS011;3026;53.612;7.278;2023-05-10T06:12:34;9.83;;;7.13;;
5995;SDS011;3026;53.612;7.278;2023-05-10T06:15:00;10.07;;;7.27;;
5995;SDS011;3026;53.612;7.278;2023-05-10T06:17:27;7.90;;;7.10;;
5995;SDS011;3026;53.612;7.278;2023-05-10T06:19:56;7.40;;;6.43;;
5995;SDS011;3026;53.612;7.278;2023-05-10T06:22:23;8.03;;;6.43;;
5995;SDS011;3026;53.612;7.278;2023-05-10T06:24:50;8.40;;;6.53;;
5995;SDS011;3026;53.612;7.278;2023-05-10T06:27:16;6.20;;;5.57;;
5995;SDS011;3026;53.612;7.278;2023-05-10T06:29:43;8.03;;;6.43;;
5995;SDS011;3026;53.612;7.278;2023-05-10T06:32:10;9.40;;;6.77;;
5995;SDS011;3026;53.612;7.278;2023-05-10T06:34:37;9.00;;;6.67;;
5995;SDS011;3026;53.612;7.278;2023-05-10T06:37:05;7.30;;;6.40;;
5995;SDS011;3026;53.612;7.278;2023-05-10T06:39:32;7.37;;;6.37;;
5995;SDS011;3026;53.612;7.278;2023-05-10T06:41:58;8.93;;;7.30;;
5995;SDS011;3026;53.612;7.278;2023-05-10T06:44:26;7.80;;;6.77;;
5995;SDS011;3026;53.612;7.278;2023-05-10T06:46:53;7.70;;;6.83;;
5995;SDS011;3026;53.612;7.278;2023-05-10T06:49:20;10.13;;;7.50;;
5995;SDS011;3026;53.612;7.278;2023-05-10T06:51:47;8.50;;;7.10;;
5995;SDS011;3026;53.612;7.278;2023-05-10T06:54:16;10.47;;;7.47;;
5995;SDS011;3026;53.612;7.278;2023-05-10T06:56:42;11.53;;;7.93;;
5995;SDS011;3026;53.612;7.278;2023-05-10T06:59:09;8.87;;;6.67;;
5995;SDS011;3026;53.612;7.278;2023-05-10T07:01:37;9.70;;;8.00;;
5995;SDS011;3026;53.612;7.278;2023-05-10T07:04:04;12.13;;;8.13;;
5995;SDS011;3026;53.612;7.278;2023-05-10T07:06:32;9.67;;;7.43;;
5995;SDS011;3026;53.612;7.278;2023-05-10T07:08:59;10.70;;;7.47;;
5995;SDS011;3026;53.612;7.278;2023-05-10T07:11:28;11.03;;;7.47;;
5995;SDS011;3026;53.612;7.278;2023-05-10T07:13:54;9.07;;;7.00;;
5995;SDS011;3026;53.612;7.278;2023-05-10T07:16:21;10.10;;;8.20;;
5995;SDS011;3026;53.612;7.278;2023-05-10T07:18:48;8.70;;;6.87;;
5995;SDS011;3026;53.612;7.278;2023-05-10T07:21:15;10.57;;;6.60;;
5995;SDS011;3026;53.612;7.278;2023-05-10T07:23:42;8.33;;;6.70;;
5995;SDS011;3026;53.612;7.278;2023-05-10T07:26:09;7.43;;;5.83;;
5995;SDS011;3026;53.612;7.278;2023-05-10T07:28:37;6.50;;;5.20;;
5995;SDS011;3026;53.612;7.278;2023-05-10T07:31:04;5.50;;;4.90;;
5995;SDS011;3026;53.612;7.278;2023-05-10T07:33:31;4.23;;;3.73;;
5995;SDS011;3026;53.612;7.278;2023-05-10T07:35:58;2.87;;;2.60;;
5995;SDS011;3026;53.612;7.278;2023-05-10T07:38:25;2.60;;;2.40;;
5995;SDS011;3026;53.612;7.278;2023-05-10T07:40:51;3.30;;;3.00;;
5995;SDS011;3026;53.612;7.278;2023-05-10T07:43:18;4.23;;;3.57;;
5995;SDS011;3026;53.612;7.278;2023-05-10T07:45:46;5.43;;;4.57;;
5995;SDS011;3026;53.612;7.278;2023-05-10T07:48:13;5.73;;;4.40;;
5995;SDS011;3026;53.612;7.278;2023-05-10T07:50:40;5.93;;;5.30;;
5995;SDS011;3026;53.612;7.278;2023-05-10T07:53:07;6.07;;;5.47;;
5995;SDS011;3026;53.612;7.278;2023-05-10T07:55:34;7.50;;;6.20;;
5995;SDS011;3026;53.612;7.278;2023-05-10T07:58:00;9.33;;;6.93;;
5995;SDS011;3026;53.612;7.278;2023-05-10T08:00:27;7.50;;;6.40;;
5995;SDS011;3026;53.612;7.278;2023-05-10T08:02:55;9.70;;;6.57;;
5995;SDS011;3026;53.612;7.278;2023-05-10T08:05:22;8.43;;;6.80;;
5995;SDS011;3026;53.612;7.278;2023-05-10T08:07:49;6.97;;;6.10;;
5995;SDS011;3026;53.612;7.278;2023-05-10T08:10:16;9.33;;;6.77;;
5995;SDS011;3026;53.612;7.278;2023-05-10T08:12:43;8.63;;;6.83;;
5995;SDS011;3026;53.612;7.278;2023-05-10T08:15:10;8.27;;;7.00;;
5995;SDS011;3026;53.612;7.278;2023-05-10T08:17:37;10.53;;;7.13;;
5995;SDS011;3026;53.612;7.278;2023-05-10T08:20:06;10.17;;;8.10;;
5995;SDS011;3026;53.612;7.278;2023-05-10T08:22:33;8.70;;;7.30;;
5995;SDS011;3026;53.612;7.278;2023-05-10T08:25:00;11.73;;;7.10;;
5995;SDS011;3026;53.612;7.278;2023-05-10T08:27:27;12.50;;;7.60;;
5995;SDS011;3026;53.612;7.278;2023-05-10T08:29:54;9.10;;;6.77;;
5995;SDS011;3026;53.612;7.278;2023-05-10T08:32:21;11.30;;;7.43;;
5995;SDS011;3026;53.612;7.278;2023-05-10T08:34:48;11.23;;;7.23;;
5995;SDS011;3026;53.612;7.278;2023-05-10T08:37:16;11.47;;;7.53;;
5995;SDS011;3026;53.612;7.278;2023-05-10T08:39:42;12.43;;;7.23;;
5995;SDS011;3026;53.612;7.278;2023-05-10T08:42:10;10.27;;;6.73;;
5995;SDS011;3026;53.612;7.278;2023-05-10T08:44:40;12.00;;;7.40;;
5995;SDS011;3026;53.612;7.278;2023-05-10T08:47:07;8.13;;;6.10;;
5995;SDS011;3026;53.612;7.278;2023-05-10T08:49:36;9.43;;;6.47;;
5995;SDS011;3026;53.612;7.278;2023-05-10T08:52:03;7.50;;;6.07;;
5995;SDS011;3026;53.612;7.278;2023-05-10T08:54:33;7.33;;;5.30;;
5995;SDS011;3026;53.612;7.278;2023-05-10T08:57:00;6.47;;;5.00;;
5995;SDS011;3026;53.612;7.278;2023-05-10T08:59:27;7.40;;;4.50;;
5995;SDS011;3026;53.612;7.278;2023-05-10T09:01:56;5.57;;;4.33;;
5995;SDS011;3026;53.612;7.278;2023-05-10T09:04:24;5.43;;;4.10;;
5995;SDS011;3026;53.612;7.278;2023-05-10T09:06:51;5.60;;;4.33;;
5995;SDS011;3026;53.612;7.278;2023-05-10T09:09:19;5.87;;;4.13;;
5995;SDS011;3026;53.612;7.278;2023-05-10T09:11:48;5.50;;;4.40;;
5995;SDS011;3026;53.612;7.278;2023-05-10T09:14:15;7.37;;;4.53;;
5995;SDS011;3026;53.612;7.278;2023-05-10T09:16:43;5.57;;;4.00;;
5995;SDS011;3026;53.612;7.278;2023-05-10T09:19:10;4.40;;;3.50;;
5995;SDS011;3026;53.612;7.278;2023-05-10T09:21:37;6.20;;;3.80;;
5995;SDS011;3026;53.612;7.278;2023-05-10T09:24:05;7.97;;;4.03;;
5995;SDS011;3026;53.612;7.278;2023-05-10T09:26:32;5.47;;;3.10;;
5995;SDS011;3026;53.612;7.278;2023-05-10T09:29:02;5.80;;;3.80;;
5995;SDS011;3026;53.612;7.278;2023-05-10T09:31:46;4.43;;;3.20;;
5995;SDS011;3026;53.612;7.278;2023-05-10T09:34:16;4.60;;;3.20;;
5995;SDS011;3026;53.612;7.278;2023-05-10T09:36:53;4.87;;;3.03;;
5995;SDS011;3026;53.612;7.278;2023-05-10T09:39:23;4.87;;;2.90;;
5995;SDS011;3026;53.612;7.278;2023-05-10T09:41:57;3.93;;;2.60;;
5995;SDS011;3026;53.612;7.278;2023-05-10T09:44:26;5.07;;;2.50;;
5995;SDS011;3026;53.612;7.278;2023-05-10T09:46:53;5.70;;;3.00;;
5995;SDS011;3026;53.612;7.278;2023-05-10T09:49:20;4.50;;;2.17;;
5995;SDS011;3026;53.612;7.278;2023-05-10T09:51:47;3.90;;;2.60;;
5995;SDS011;3026;53.612;7.278;2023-05-10T09:54:23;5.93;;;2.23;;
5995;SDS011;3026;53.612;7.278;2023-05-10T09:56:50;1.63;;;1.30;;
5995;SDS011;3026;53.612;7.278;2023-05-10T09:59:17;2.17;;;1.30;;
5995;SDS011;3026;53.612;7.278;2023-05-10T10:01:50;2.40;;;1.37;;
5995;SDS011;3026;53.612;7.278;2023-05-10T10:04:17;2.70;;;1.20;;
5995;SDS011;3026;53.612;7.278;2023-05-10T10:06:47;1.10;;;1.00;;
5995;SDS011;3026;53.612;7.278;2023-05-10T10:09:25;1.17;;;1.07;;
5995;SDS011;3026;53.612;7.278;2023-05-10T10:11:52;2.60;;;1.07;;
5995;SDS011;3026;53.612;7.278;2023-05-10T10:14:20;1.07;;;1.07;;
5995;SDS011;3026;53.612;7.278;2023-05-10T10:16:50;1.37;;;1.27;;
5995;SDS011;3026;53.612;7.278;2023-05-10T10:19:17;1.00;;;1.00;;
5995;SDS011;3026;53.612;7.278;2023-05-10T10:21:44;1.67;;;1.40;;
5995;SDS011;3026;53.612;7.278;2023-05-10T10:24:11;1.33;;;1.23;;
5995;SDS011;3026;53.612;7.278;2023-05-10T10:26:38;1.50;;;1.40;;
5995;SDS011;3026;53.612;7.278;2023-05-10T10:29:10;1.60;;;1.50;;
5995;SDS011;3026;53.612;7.278;2023-05-10T10:31:45;1.90;;;1.80;;
5995;SDS011;3026;53.612;7.278;2023-05-10T10:34:21;2.37;;;2.17;;
5995;SDS011;3026;53.612;7.278;2023-05-10T10:36:52;2.30;;;2.10;;
5995;SDS011;3026;53.612;7.278;2023-05-10T10:39:20;2.23;;;2.03;;
5995;SDS011;3026;53.612;7.278;2023-05-10T10:41:51;2.37;;;2.13;;
5995;SDS011;3026;53.612;7.278;2023-05-10T10:44:25;1.97;;;1.80;;
5995;SDS011;3026;53.612;7.278;2023-05-10T10:47:00;1.50;;;1.40;;
5995;SDS011;3026;53.612;7.278;2023-05-10T10:49:32;1.10;;;1.10;;
5995;SDS011;3026;53.612;7.278;2023-05-10T10:54:59;2.10;;;2.00;;
5995;SDS011;3026;53.612;7.278;2023-05-10T10:57:28;2.57;;;2.37;;
5995;SDS011;3026;53.612;7.278;2023-05-10T11:02:49;2.33;;;2.00;;
5995;SDS011;3026;53.612;7.278;2023-05-10T11:08:17;4.13;;;2.20;;
5995;SDS011;3026;53.612;7.278;2023-05-10T11:10:49;2.47;;;2.20;;
5995;SDS011;3026;53.612;7.278;2023-05-10T11:13:26;3.30;;;2.93;;
5995;SDS011;3026;53.612;7.278;2023-05-10T11:15:55;3.47;;;2.50;;
5995;SDS011;3026;53.612;7.278;2023-05-10T11:18:24;2.23;;;2.03;;
5995;SDS011;3026;53.612;7.278;2023-05-10T11:20:55;2.20;;;2.00;;
5995;SDS011;3026;53.612;7.278;2023-05-10T11:23:23;2.87;;;2.43;;
5995;SDS011;3026;53.612;7.278;2023-05-10T11:25:55;2.80;;;2.30;;
5995;SDS011;3026;53.612;7.278;2023-05-10T11:28:22;2.53;;;2.33;;
5995;SDS011;3026;53.612;7.278;2023-05-10T11:30:49;2.60;;;2.40;;
5995;SDS011;3026;53.612;7.278;2023-05-10T11:33:17;2.43;;;2.23;;
5995;SDS011;3026;53.612;7.278;2023-05-10T11:35:45;3.03;;;2.83;;
5995;SDS011;3026;53.612;7.278;2023-05-10T11:38:14;2.90;;;2.23;;
5995;SDS011;3026;53.612;7.278;2023-05-10T11:40:41;2.57;;;2.37;;
5995;SDS011;3026;53.612;7.278;2023-05-10T11:43:08;3.43;;;1.90;;
5995;SDS011;3026;53.612;7.278;2023-05-10T11:45:36;2.07;;;1.97;;
5995;SDS011;3026;53.612;7.278;2023-05-10T11:48:03;2.47;;;2.27;;
5995;SDS011;3026;53.612;7.278;2023-05-10T11:50:30;3.47;;;2.50;;
5995;SDS011;3026;53.612;7.278;2023-05-10T11:52:57;2.70;;;2.50;;
5995;SDS011;3026;53.612;7.278;2023-05-10T11:55:26;2.70;;;2.50;;
5995;SDS011;3026;53.612;7.278;2023-05-10T11:57:55;4.67;;;2.70;;
5995;SDS011;3026;53.612;7.278;2023-05-10T12:00:26;3.27;;;2.97;;
5995;SDS011;3026;53.612;7.278;2023-05-10T12:02:53;3.93;;;3.20;;
5995;SDS011;3026;53.612;7.278;2023-05-10T12:05:20;3.10;;;2.80;;
5995;SDS011;3026;53.612;7.278;2023-05-10T12:07:48;3.50;;;3.20;;
5995;SDS011;3026;53.612;7.278;2023-05-10T12:10:15;3.23;;;2.50;;
5995;SDS011;3026;53.612;7.278;2023-05-10T12:12:44;3.83;;;2.80;;
5995;SDS011;3026;53.612;7.278;2023-05-10T12:15:12;2.70;;;2.50;;
5995;SDS011;3026;53.612;7.278;2023-05-10T12:17:44;3.57;;;2.10;;
5995;SDS011;3026;53.612;7.278;2023-05-10T12:20:15;2.73;;;2.40;;
5995;SDS011;3026;53.612;7.278;2023-05-10T12:22:46;2.30;;;2.00;;
5995;SDS011;3026;53.612;7.278;2023-05-10T12:25:16;2.53;;;1.90;;
5995;SDS011;3026;53.612;7.278;2023-05-10T12:27:54;2.20;;;2.00;;
5995;SDS011;3026;53.612;7.278;2023-05-10T12:30:22;2.53;;;1.77;;
5995;SDS011;3026;53.612;7.278;2023-05-10T12:33:20;2.80;;;2.13;;
5995;SDS011;3026;53.612;7.278;2023-05-10T12:35:47;2.27;;;1.80;;
5995;SDS011;3026;53.612;7.278;2023-05-10T12:38:24;2.07;;;1.60;;
5995;SDS011;3026;53.612;7.278;2023-05-10T12:40:54;2.93;;;2.50;;
5995;SDS011;3026;53.612;7.278;2023-05-10T12:43:22;2.20;;;2.00;;
5995;SDS011;3026;53.612;7.278;2023-05-10T12:45:49;2.83;;;2.07;;
5995;SDS011;3026;53.612;7.278;2023-05-10T12:48:16;2.60;;;2.20;;
5995;SDS011;3026;53.612;7.278;2023-05-10T12:50:43;3.77;;;2.40;;
5995;SDS011;3026;53.612;7.278;2023-05-10T12:53:10;2.80;;;2.20;;
5995;SDS011;3026;53.612;7.278;2023-05-10T12:55:38;3.47;;;2.93;;
5995;SDS011;3026;53.612;7.278;2023-05-10T12:58:05;3.33;;;2.40;;
5995;SDS011;3026;53.612;7.278;2023-05-10T13:00:33;3.83;;;2.90;;
5995;SDS011;3026;53.612;7.278;2023-05-10T13:03:00;4.63;;;3.00;;
5995;SDS011;3026;53.612;7.278;2023-05-10T13:05:26;3.07;;;2.77;;
5995;SDS011;3026;53.612;7.278;2023-05-10T13:07:53;5.93;;;2.77;;
5995;SDS011;3026;53.612;7.278;2023-05-10T13:10:20;3.70;;;3.30;;
5995;SDS011;3026;53.612;7.278;2023-05-10T13:12:48;4.93;;;2.20;;
5995;SDS011;3026;53.612;7.278;2023-05-10T13:15:15;3.73;;;2.43;;
5995;SDS011;3026;53.612;7.278;2023-05-10T13:17:43;3.10;;;2.80;;
5995;SDS011;3026;53.612;7.278;2023-05-10T13:20:10;4.13;;;3.20;;
5995;SDS011;3026;53.612;7.278;2023-05-10T13:22:37;3.80;;;3.40;;
5995;SDS011;3026;53.612;7.278;2023-05-10T13:25:04;4.63;;;3.97;;
5995;SDS011;3026;53.612;7.278;2023-05-10T13:27:31;5.20;;;4.40;;
5995;SDS011;3026;53.612;7.278;2023-05-10T13:29:58;5.53;;;4.93;;
5995;SDS011;3026;53.612;7.278;2023-05-10T13:32:25;6.03;;;5.43;;
5995;SDS011;3026;53.612;7.278;2023-05-10T13:34:54;7.83;;;4.50;;
5995;SDS011;3026;53.612;7.278;2023-05-10T13:37:21;6.67;;;4.70;;
5995;SDS011;3026;53.612;7.278;2023-05-10T13:39:48;5.97;;;4.50;;
5995;SDS011;3026;53.612;7.278;2023-05-10T13:42:14;9.00;;;4.77;;
5995;SDS011;3026;53.612;7.278;2023-05-10T13:44:41;20.93;;;6.13;;
5995;SDS011;3026;53.612;7.278;2023-05-10T13:47:08;6.43;;;4.97;;
5995;SDS011;3026;53.612;7.278;2023-05-10T13:49:35;7.10;;;5.23;;
5995;SDS011;3026;53.612;7.278;2023-05-10T13:52:03;6.50;;;5.10;;
5995;SDS011;3026;53.612;7.278;2023-05-10T13:54:32;6.77;;;5.27;;
5995;SDS011;3026;53.612;7.278;2023-05-10T13:56:58;7.90;;;5.93;;
5995;SDS011;3026;53.612;7.278;2023-05-10T13:59:25;6.37;;;5.63;;
5995;SDS011;3026;53.612;7.278;2023-05-10T14:01:52;8.73;;;5.83;;
5995;SDS011;3026;53.612;7.278;2023-05-10T14:04:19;8.27;;;5.07;;
5995;SDS011;3026;53.612;7.278;2023-05-10T14:06:46;8.63;;;5.70;;
5995;SDS011;3026;53.612;7.278;2023-05-10T14:09:14;8.33;;;5.97;;
5995;SDS011;3026;53.612;7.278;2023-05-10T14:11:41;7.53;;;5.50;;
5995;SDS011;3026;53.612;7.278;2023-05-10T14:14:10;9.00;;;5.93;;
5995;SDS011;3026;53.612;7.278;2023-05-10T14:16:36;6.90;;;6.20;;
5995;SDS011;3026;53.612;7.278;2023-05-10T14:19:03;9.07;;;6.10;;
5995;SDS011;3026;53.612;7.278;2023-05-10T14:21:30;11.63;;;6.13;;
5995;SDS011;3026;53.612;7.278;2023-05-10T14:23:57;7.57;;;6.10;;
5995;SDS011;3026;53.612;7.278;2023-05-10T14:26:25;9.83;;;6.90;;
5995;SDS011;3026;53.612;7.278;2023-05-10T14:28:52;8.70;;;6.17;;
5995;SDS011;3026;53.612;7.278;2023-05-10T14:31:19;7.47;;;6.63;;
5995;SDS011;3026;53.612;7.278;2023-05-10T14:33:46;8.50;;;6.43;;
5995;SDS011;3026;53.612;7.278;2023-05-10T14:36:13;6.47;;;5.30;;
5995;SDS011;3026;53.612;7.278;2023-05-10T14:38:40;7.57;;;5.90;;
5995;SDS011;3026;53.612;7.278;2023-05-10T14:41:07;7.70;;;6.40;;
5995;SDS011;3026;53.612;7.278;2023-05-10T14:43:35;7.03;;;6.30;;
5995;SDS011;3026;53.612;7.278;2023-05-10T14:46:02;7.27;;;5.40;;
5995;SDS011;3026;53.612;7.278;2023-05-10T14:48:29;6.50;;;5.80;;
5995;SDS011;3026;53.612;7.278;2023-05-10T14:50:56;7.10;;;6.07;;
5995;SDS011;3026;53.612;7.278;2023-05-10T14:53:23;6.63;;;5.33;;
5995;SDS011;3026;53.612;7.278;2023-05-10T14:55:50;5.90;;;5.30;;
5995;SDS011;3026;53.612;7.278;2023-05-10T14:58:17;6.33;;;5.27;;
5995;SDS011;3026;53.612;7.278;2023-05-10T15:00:45;9.00;;;5.53;;
5995;SDS011;3026;53.612;7.278;2023-05-10T15:03:12;6.67;;;5.47;;
5995;SDS011;3026;53.612;7.278;2023-05-10T15:05:39;7.67;;;5.77;;
5995;SDS011;3026;53.612;7.278;2023-05-10T15:08:06;6.77;;;5.63;;
5995;SDS011;3026;53.612;7.278;2023-05-10T15:10:34;6.67;;;5.97;;
5995;SDS011;3026;53.612;7.278;2023-05-10T15:13:02;7.13;;;6.43;;
5995;SDS011;3026;53.612;7.278;2023-05-10T15:15:30;8.10;;;6.73;;
5995;SDS011;3026;53.612;7.278;2023-05-10T15:17:58;8.87;;;7.10;;
5995;SDS011;3026;53.612;7.278;2023-05-10T15:20:25;8.03;;;7.23;;
5995;SDS011;3026;53.612;7.278;2023-05-10T15:22:51;10.07;;;8.03;;
5995;SDS011;3026;53.612;7.278;2023-05-10T15:25:19;8.80;;;7.43;;
5995;SDS011;3026;53.612;7.278;2023-05-10T15:27:46;10.00;;;8.33;;
5995;SDS011;3026;53.612;7.278;2023-05-10T15:30:13;10.43;;;8.23;;
5995;SDS011;3026;53.612;7.278;2023-05-10T15:32:40;9.63;;;7.83;;